Thunder radar more information blitzortung!


Radar de pluja more information rain snow radar


Visita la nostra xarxa de llocs de meteo:

Template documentation
and downloads

And another site



No particular awareness of the weather is required.    There are no Weather-warnings

Pagina Historial Weather Underground text

Diari Resum Agost 6, 2017 Unitats:  Mètric    Imperial   Tant
« Previous Dia
SegĂźent Dia »
Diari Setmana Mensual Anual Personalitzada
  Maxima: Minima: Media:
Temperatura: -17.8 °C -5.4 °C -2.2 °C
Punt de rosada: -17.8 °C -8.6 °C -7.5 °C
Humitat: Humidity % 39 % 57 %
Wind Speed: 0 km/h 0 km/h 10.8 km/h
RĂ fegues de vent: 0 km/h - -
Vent:- - SSW
Pression baro: 0 hPa 34327.3 hPa -
Precipitacions: 0 mm    
Historical Graphs
 
 
Dades de taula per Agost 6, 2017
Temps Temperatura Punt de rosada Pression baro Vent Wind Speed RĂ fegues de vent Humitat Rainfall Rate (Hourly)
-17.8 °C -17.8 °C 0 hPa Calm     Humidity % 0 mm
00:00 -4.4 °C -7.6 °C 34327.3 hPa NNE 2.6 km/h 5.1 km/h 70 % 0 mm
00:01 -2.9 °C -8.6 °C 34327.3 hPa Calm     54 % 0 mm
00:10 -4.5 °C -7.6 °C 34327.3 hPa Calm   5.1 km/h 71 % 0 mm
00:20 -4.6 °C -7.7 °C 34327.3 hPa Calm   2.6 km/h 71 % 0 mm
00:30 -4.5 °C -7.4 °C 34327.3 hPa Calm   2.6 km/h 72 % 0 mm
00:40 -4.7 °C -7.6 °C 34327.3 hPa Calm   5.1 km/h 72 % 0 mm
00:50 -4.6 °C -7.6 °C 34327.3 hPa North 5.1 km/h 5.1 km/h 72 % 0 mm
01:00 -4.6 °C -7.4 °C 34327.3 hPa Calm   5.1 km/h 73 % 0 mm
01:10 -4.6 °C -7.6 °C 34361.1 hPa Calm   2.6 km/h 72 % 0 mm
01:20 -4.6 °C -7.6 °C 34327.3 hPa Calm   2.6 km/h 72 % 0 mm
01:30 -4.7 °C -7.6 °C 34327.3 hPa Calm   5.1 km/h 72 % 0 mm
01:40 -4.8 °C -7.8 °C 34361.1 hPa SW 5.1 km/h 7.7 km/h 72 % 0 mm
01:50 -4.8 °C -7.7 °C 34361.1 hPa SW 2.6 km/h 5.1 km/h 73 % 0 mm
02:00 -4.8 °C -7.6 °C 34361.1 hPa Calm   2.6 km/h 73 % 0 mm
02:10 -4.8 °C -7.7 °C 34361.1 hPa NW 2.6 km/h 5.1 km/h 73 % 0 mm
02:20 -4.9 °C -7.6 °C 34361.1 hPa SW 2.6 km/h 2.6 km/h 74 % 0 mm
02:30 -4.9 °C -7.6 °C 34361.1 hPa SW 2.6 km/h 5.1 km/h 74 % 0 mm
02:40 -4.9 °C -7.6 °C 34361.1 hPa WSW 2.6 km/h 7.7 km/h 74 % 0 mm
02:50 -4.6 °C -7.3 °C 34361.1 hPa North 2.6 km/h 5.1 km/h 74 % 0 mm
03:00 -4.7 °C -7.5 °C 34361.1 hPa North 2.6 km/h 5.1 km/h 73 % 0 mm
03:10 -4.7 °C -7.4 °C 34361.1 hPa SW 2.6 km/h 5.1 km/h 74 % 0 mm
03:20 -4.7 °C -7.4 °C 34395 hPa SW 5.1 km/h 5.1 km/h 74 % 0 mm
03:30 -4.6 °C -7.6 °C 34395 hPa Calm   5.1 km/h 72 % 0 mm
03:40 -4.3 °C -7.7 °C 34395 hPa SW 2.6 km/h 5.1 km/h 69 % 0 mm
03:50 -4.1 °C -7.4 °C 34395 hPa Calm   2.6 km/h 69 % 0 mm
04:00 -3.6 °C -7.3 °C 34395 hPa SSW 2.6 km/h 5.1 km/h 67 % 0 mm
04:10 -3.1 °C -7.3 °C 34395 hPa SSW 5.1 km/h 5.1 km/h 63 % 0 mm
04:20 -2.9 °C -7.4 °C 34395 hPa SSW 2.6 km/h 5.1 km/h 61 % 0 mm
04:30 -2.8 °C -7.4 °C 34395 hPa SW 2.6 km/h 7.7 km/h 61 % 0 mm
04:40 -2.6 °C -7.4 °C 34395 hPa SW 5.1 km/h 7.7 km/h 59 % 0 mm
04:50 -2.1 °C -7 °C 34395 hPa Calm   5.1 km/h 59 % 0 mm
05:00 -1.8 °C -7.2 °C 34395 hPa SE 5.1 km/h 7.7 km/h 56 % 0 mm
05:10 -2.1 °C -7.8 °C 34361.1 hPa East 7.7 km/h 7.7 km/h 54 % 0 mm
05:20 -1.8 °C -7.3 °C 34395 hPa ESE 5.1 km/h 5.1 km/h 55 % 0 mm
05:30 -1.1 °C -7 °C 34395 hPa SSE 2.6 km/h 10.3 km/h 53 % 0 mm
05:40 -0.9 °C -7.1 °C 34395 hPa Calm   7.7 km/h 52 % 0 mm
05:50 -1.1 °C -7.3 °C 34395 hPa South 2.6 km/h 10.3 km/h 51 % 0 mm
06:00 -0.7 °C -6.9 °C 34395 hPa South 2.6 km/h 10.3 km/h 51 % 0 mm
06:10 -0.6 °C -7.3 °C 34395 hPa SSW 2.6 km/h 5.1 km/h 49 % 0 mm
06:20 -0.4 °C -7.2 °C 34395 hPa SSW 7.7 km/h 7.7 km/h 48 % 0 mm
06:30 -0.4 °C -7.4 °C 34395 hPa SW 5.1 km/h 10.3 km/h 47 % 0 mm
06:40 -0.3 °C -7.6 °C 34395 hPa West 5.1 km/h 7.7 km/h 46 % 0 mm
06:50 0.2 °C -7.3 °C 34395 hPa NW 2.6 km/h 7.7 km/h 45 % 0 mm
07:00 0.6 °C -7.3 °C 34395 hPa SSW 5.1 km/h 7.7 km/h 43 % 0 mm
07:10 0.9 °C -7.2 °C 34361.1 hPa SSE 5.1 km/h 10.3 km/h 42 % 0 mm
07:20 0.5 °C -7.4 °C 34395 hPa South 7.7 km/h 15.6 km/h 43 % 0 mm
07:30 0.4 °C -7.7 °C 34395 hPa SW 7.7 km/h 7.7 km/h 42 % 0 mm
07:40 1 °C -7.4 °C 34361.1 hPa SW 5.1 km/h 7.7 km/h 41 % 0 mm
07:50 1.1 °C -7.3 °C 34361.1 hPa SSW 2.6 km/h 7.7 km/h 41 % 0 mm
08:00 1.2 °C -7.4 °C 34361.1 hPa SSW 2.6 km/h 10.3 km/h 40 % 0 mm
08:10 1.2 °C -7.6 °C 34361.1 hPa SSW 7.7 km/h 12.9 km/h 39 % 0 mm
08:20 1.5 °C -7.2 °C 34361.1 hPa SSW 5.1 km/h 10.3 km/h 40 % 0 mm
08:30 1.1 °C -7.7 °C 34361.1 hPa SSW 5.1 km/h 15.6 km/h 39 % 0 mm
08:40 1.1 °C -7.6 °C 34361.1 hPa South 5.1 km/h 12.9 km/h 40 % 0 mm
08:50 0.4 °C -7.7 °C 34327.3 hPa SW 5.1 km/h 15.6 km/h 42 % 0 mm
09:00 0.9 °C -7.4 °C 34327.3 hPa SW 12.9 km/h 15.6 km/h 41 % 0 mm
09:10 0.8 °C -7.4 °C 34361.1 hPa SW 12.9 km/h 15.6 km/h 42 % 0 mm
09:20 0.9 °C -7.4 °C 34361.1 hPa SW 12.9 km/h 15.6 km/h 41 % 0 mm
09:30 0.9 °C -7.4 °C 34361.1 hPa SW 5.1 km/h 25.9 km/h 41 % 0 mm
09:40 1.2 °C -7.2 °C 34361.1 hPa SSW 12.9 km/h 20.8 km/h 41 % 0 mm
09:50 0.9 °C -7.4 °C 34361.1 hPa SW 7.7 km/h 18.2 km/h 41 % 0 mm
10:00 1.3 °C -7.3 °C 34361.1 hPa SW 7.7 km/h 10.3 km/h 40 % 0 mm
10:10 1.2 °C -7.6 °C 34361.1 hPa SW 7.7 km/h 20.8 km/h 39 % 0 mm
10:20 1.1 °C -7.7 °C 34361.1 hPa SW 15.6 km/h 20.8 km/h 39 % 0 mm
10:30 1.1 °C -7.7 °C 34361.1 hPa SW 7.7 km/h 7.7 km/h 39 % 0 mm
10:40 1.4 °C -7.2 °C 34361.1 hPa SSW 7.7 km/h 12.9 km/h 40 % 0 mm
15:44 1.3 °C -7.6 °C 34361.1 hPa West 29.8 km/h 29.8 km/h 39 % 0 mm
15:49 1.3 °C -7.6 °C 34327.3 hPa SW 26.9 km/h 26.9 km/h 39 % 0 mm
15:54 1.3 °C -7.6 °C 34327.3 hPa South 38.8 km/h 38.8 km/h 39 % 0 mm
15:59 1.2 °C -7.7 °C 34327.3 hPa SW 15 km/h 16.6 km/h 39 % 0 mm
16:04 0.8 °C -7.7 °C 34327.3 hPa WSW 32.3 km/h 32.3 km/h 40 % 0 mm
16:09 0.7 °C -7.7 °C 34327.3 hPa WSW 26.4 km/h 26.4 km/h 41 % 0 mm
16:14 0.7 °C -7.7 °C 34327.3 hPa SSW 29.8 km/h 29.8 km/h 41 % 0 mm
16:19 0.8 °C -7.6 °C 34327.3 hPa WSW 32.8 km/h 32.8 km/h 41 % 0 mm
16:24 0.7 °C -7.6 °C 34327.3 hPa SW 20.9 km/h 20.9 km/h 41 % 0 mm
16:29 0.6 °C -7.6 °C 34327.3 hPa South 15 km/h 15 km/h 42 % 0 mm
16:34 0.5 °C -7.4 °C 34327.3 hPa SSW 20.9 km/h 20.9 km/h 43 % 0 mm
16:39 0.6 °C -7.6 °C 34327.3 hPa SSW 20.9 km/h 20.9 km/h 42 % 0 mm
16:44 0.6 °C -7.3 °C 34327.3 hPa South 28.2 km/h 28.2 km/h 43 % 0 mm
16:49 0.4 °C -7.5 °C 34327.3 hPa South 35.7 km/h 35.7 km/h 43 % 0 mm
16:54 0.2 °C -7.5 °C 34327.3 hPa WSW 23.8 km/h 23.8 km/h 44 % 0 mm
16:59 0.3 °C -7.3 °C 34327.3 hPa SW 20.9 km/h 20.9 km/h 44 % 0 mm
17:04 0.1 °C -7.3 °C 34327.3 hPa SSW 23.8 km/h 23.8 km/h 45 % 0 mm
17:09 -0.1 °C -7.3 °C 34327.3 hPa SSW 26.9 km/h 26.9 km/h 46 % 0 mm
17:14 0.2 °C -7.3 °C 34327.3 hPa WSW 11.9 km/h 11.9 km/h 45 % 0 mm
17:19 0.2 °C -7.1 °C 34327.3 hPa SW 31.4 km/h 31.4 km/h 46 % 0 mm
17:24 -0.1 °C -7.3 °C 34327.3 hPa WSW 29.8 km/h 29.8 km/h 46 % 0 mm
17:29 0.2 °C -7.1 °C 34327.3 hPa West 15 km/h 15 km/h 46 % 0 mm
17:34 -0.2 °C -7.2 °C 34327.3 hPa South 20.9 km/h 20.9 km/h 47 % 0 mm
17:39 -0.6 °C -7.4 °C 34327.3 hPa SW 11.9 km/h 11.9 km/h 48 % 0 mm
17:44 -0.8 °C -7.4 °C 34327.3 hPa WSW 15 km/h 15 km/h 49 % 0 mm
17:49 -0.9 °C -7.4 °C 34361.1 hPa West 23.8 km/h 23.8 km/h 50 % 0 mm
17:54 -1.1 °C -7.3 °C 34361.1 hPa SW 38.8 km/h 38.8 km/h 51 % 0 mm
17:59 -0.9 °C -7.2 °C 34361.1 hPa SSW 17.9 km/h 17.9 km/h 51 % 0 mm
18:04 -0.8 °C -7.1 °C 34361.1 hPa SW 26.4 km/h 26.4 km/h 51 % 0 mm
18:09 -0.9 °C -7.2 °C 34361.1 hPa South 20.9 km/h 20.9 km/h 51 % 0 mm
18:14 -0.9 °C -7.2 °C 34361.1 hPa SSW 17.9 km/h 17.9 km/h 51 % 0 mm
18:15 -0.9 °C -7.2 °C 34361.1 hPa SW 23.8 km/h 23.8 km/h 51 % 0 mm
18:20 -0.7 °C -7 °C 34327.3 hPa SW 15 km/h 15 km/h 51 % 0 mm
18:25 -1 °C -7.1 °C 34327.3 hPa SW 16.6 km/h 16.6 km/h 52 % 0 mm
18:30 -1.2 °C -7.2 °C 34327.3 hPa SW 23.8 km/h 23.8 km/h 52 % 0 mm
18:35 -1.3 °C -7.2 °C 34327.3 hPa South 20.9 km/h 20.9 km/h 53 % 0 mm
18:40 -1.4 °C -7.3 °C 34327.3 hPa South 26.9 km/h 26.9 km/h 53 % 0 mm
18:45 -1.4 °C -7.2 °C 34327.3 hPa SSW 15 km/h 15 km/h 54 % 0 mm
18:50 -1.4 °C -7.2 °C 34361.1 hPa SSW 23.8 km/h 23.8 km/h 54 % 0 mm
18:55 -1.4 °C -7.2 °C 34361.1 hPa SW 20.9 km/h 20.9 km/h 54 % 0 mm
19:05 -1.5 °C -7.2 °C 34361.1 hPa SSE 26.9 km/h 26.9 km/h 54 % 0 mm
19:10 -1.7 °C -7.2 °C 34361.1 hPa SSW 15 km/h 15 km/h 55 % 0 mm
19:15 -1.6 °C -7.3 °C 34361.1 hPa WSW 22.5 km/h 22.5 km/h 54 % 0 mm
19:20 -1.6 °C -7.2 °C 34327.3 hPa West 17.9 km/h 17.9 km/h 55 % 0 mm
19:25 -1.6 °C -7.1 °C 34327.3 hPa SW 15.3 km/h 15.3 km/h 55 % 0 mm
19:30 -1.6 °C -7.2 °C 34327.3 hPa SW 15 km/h 15 km/h 55 % 0 mm
19:35 -1.8 °C -7.2 °C 34327.3 hPa SSW 20.9 km/h 20.9 km/h 56 % 0 mm
19:40 -1.9 °C -7.1 °C 34327.3 hPa SW 17.9 km/h 17.9 km/h 57 % 0 mm
19:45 -2 °C -7.2 °C 34327.3 hPa WSW 15 km/h 15 km/h 57 % 0 mm
19:50 -2 °C -7.2 °C 34361.1 hPa SSW 15 km/h 15 km/h 57 % 0 mm
19:55 -2.2 °C -7.4 °C 34361.1 hPa WSW 23.8 km/h 23.8 km/h 57 % 0 mm
20:00 -2.2 °C -7.3 °C 34361.1 hPa SW 15 km/h 15 km/h 58 % 0 mm
20:05 -2.3 °C -7.3 °C 34327.3 hPa SW 23.8 km/h 23.8 km/h 58 % 0 mm
20:10 -2.4 °C -7.3 °C 34327.3 hPa SW 17.9 km/h 17.9 km/h 59 % 0 mm
20:15 -2.5 °C -7.3 °C 34327.3 hPa ESE 15 km/h 15 km/h 59 % 0 mm
20:25 -2.7 °C -7.3 °C 34327.3 hPa SSW 15 km/h 15 km/h 60 % 0 mm
20:30 -2.7 °C -7.4 °C 34327.3 hPa South 9 km/h 9 km/h 60 % 0 mm
20:35 -2.8 °C -7.3 °C 34327.3 hPa SSW 11.9 km/h 11.9 km/h 61 % 0 mm
20:40 -2.9 °C -7.3 °C 34327.3 hPa SW 15 km/h 15 km/h 62 % 0 mm
20:45 -3 °C -7.6 °C 34327.3 hPa South 15 km/h 15 km/h 61 % 0 mm
20:50 -3.1 °C -7.4 °C 34361.1 hPa SSW 6.8 km/h 6.8 km/h 62 % 0 mm
20:55 -3.1 °C -7.3 °C 34361.1 hPa West 15 km/h 15 km/h 63 % 0 mm
21:00 -3.2 °C -7.6 °C 34361.1 hPa SW 11.9 km/h 11.9 km/h 62 % 0 mm
21:05 -3.3 °C -7.6 °C 34361.1 hPa WSW 18.3 km/h 18.3 km/h 63 % 0 mm
21:10 -3.4 °C -7.7 °C 34361.1 hPa SW 17.9 km/h 17.9 km/h 63 % 0 mm
21:15 -3.5 °C -7.6 °C 34361.1 hPa WSW 9 km/h 9 km/h 64 % 0 mm
21:20 -3.6 °C -7.6 °C 34361.1 hPa WSW 6 km/h 6 km/h 64 % 0 mm
21:25 -3.6 °C -7.6 °C 34361.1 hPa SSW 11.9 km/h 11.9 km/h 64 % 0 mm
21:30 -3.6 °C -7.7 °C 34361.1 hPa SW 15 km/h 15 km/h 64 % 0 mm
21:35 -3.7 °C -7.7 °C 34361.1 hPa SW 15 km/h 15 km/h 64 % 0 mm
21:40 -3.7 °C -7.7 °C 34361.1 hPa SSW 6.3 km/h 6.3 km/h 65 % 0 mm
21:45 -3.8 °C -7.7 °C 34361.1 hPa SW 9 km/h 9 km/h 65 % 0 mm
21:50 -3.8 °C -7.7 °C 34361.1 hPa SSE 9.3 km/h 9.3 km/h 65 % 0 mm
21:55 -3.9 °C -7.8 °C 34361.1 hPa SW 8 km/h 8 km/h 65 % 0 mm
22:00 -3.9 °C -7.6 °C 34361.1 hPa SW 9 km/h 9 km/h 67 % 0 mm
22:05 -4 °C -7.6 °C 34361.1 hPa WSW 6 km/h 6 km/h 67 % 0 mm
22:10 -4 °C -7.6 °C 34361.1 hPa South 6 km/h 6 km/h 67 % 0 mm
22:15 -4.1 °C -7.6 °C 34361.1 hPa WSW 6.8 km/h 6.8 km/h 68 % 0 mm
22:20 -4.1 °C -7.6 °C 34395 hPa SW 9 km/h 9 km/h 68 % 0 mm
22:25 -4.1 °C -7.6 °C 34395 hPa SW 9 km/h 9 km/h 68 % 0 mm
22:30 -4.2 °C -7.6 °C 34395 hPa SW 6.3 km/h 6.3 km/h 69 % 0 mm
22:35 -4.2 °C -7.6 °C 34395 hPa SW 6 km/h 6 km/h 69 % 0 mm
22:40 -4.2 °C -7.6 °C 34395 hPa SW 9 km/h 9 km/h 69 % 0 mm
22:41 -4.3 °C -7.7 °C 34395 hPa SW 9 km/h 9 km/h 69 % 0 mm
22:45 -5.1 °C -7.7 °C 34395 hPa Calm   5.1 km/h 75 % 0 mm
22:46 -4.3 °C -7.7 °C 34395 hPa WSW 9 km/h 9 km/h 69 % 0 mm
22:51 -4.3 °C -7.7 °C 34395 hPa SW 6 km/h 6 km/h 69 % 0 mm
22:55 -5.2 °C -7.7 °C 34361.1 hPa Calm     76 % 0 mm
22:56 -4.3 °C -7.6 °C 34395 hPa SW 6.8 km/h 6.8 km/h 70 % 0 mm
23:01 -4.3 °C -7.6 °C 34395 hPa WSW 6 km/h 6 km/h 70 % 0 mm
23:05 -5.2 °C -7.7 °C 34361.1 hPa Calm     76 % 0 mm
23:06 -4.4 °C -7.6 °C 34395 hPa SW 11.9 km/h 11.9 km/h 70 % 0 mm
23:11 -4.4 °C -7.6 °C 34395 hPa SW 6 km/h 6 km/h 70 % 0 mm
23:15 -5.3 °C -7.7 °C 34361.1 hPa SW 2.6 km/h 5.1 km/h 76 % 0 mm
23:16 -4.4 °C -7.6 °C 34395 hPa SW 9 km/h 9 km/h 70 % 0 mm
23:18 -4.4 °C -7.5 °C 34395 hPa SW 3.1 km/h 3.1 km/h 71 % 0 mm
23:23 -4.4 °C -7.7 °C 34395 hPa SW 6 km/h 6 km/h 70 % 0 mm
23:25 -5.3 °C -7.7 °C 34395 hPa Calm   2.6 km/h 77 % 0 mm
23:28 -4.4 °C -7.6 °C 34395 hPa SW 6 km/h 6 km/h 71 % 0 mm
23:33 -4.4 °C -7.6 °C 34395 hPa SW 5.1 km/h 5.1 km/h 71 % 0 mm
23:35 -5.3 °C -7.7 °C 34361.1 hPa Calm     77 % 0 mm
23:38 -4.5 °C -7.4 °C 34395 hPa WSW 3.1 km/h 3.1 km/h 72 % 0 mm
23:43 -4.5 °C -7.4 °C 34395 hPa WSW 6 km/h   72 % 0 mm
23:45 -5.4 °C -7.7 °C 34361.1 hPa Calm     77 % 0 mm
23:48 -4.6 °C -7.6 °C 34361.1 hPa SW 6 km/h 6 km/h 72 % 0 mm
23:53 -4.6 °C -7.6 °C 34361.1 hPa WSW 3.1 km/h 3.1 km/h 72 % 0 mm
23:55 -5.4 °C -7.7 °C 34361.1 hPa Calm     78 % 0 mm
23:58 -4.6 °C -7.6 °C 34361.1 hPa SW 6 km/h 6 km/h 72 % 0 mm
Meteo Sesrovires
Elogis d' Weather Underground - 2 mb

Guio original per  Jim McMurry - jmcmurry@mwt.net Adaptat per a la plantilla per  Wim van der Kuil - Leuven-Template.eu

Trobareu la nostra informacio del temps tambe a:

Weather Underground

AWEKAS